Time;durP1;ratioP1;P1;durP2;ratioP2;P2;SDS_P1;SDS_P2;PMS_P1;PMS_P2;Temp;Humidity;BMP_temperature;BMP_pressure;BME280_temperature;BME280_humidity;BME280_pressure;Samples;Min_cycle;Max_cycle;Signal;HPM_P1;HPM_P2
2022/07/24 00:01:31;;;;;;;8.35;6.38;;;;;;;;;;6303351;22;20086;-84
2022/07/24 00:03:58;;;;;;;8.77;6.32;;;;;;;;;;6303992;22;20073;-83
2022/07/24 00:06:26;;;;;;;8.88;5.95;;;;;;;;;;6276588;22;20800;-84
2022/07/24 00:08:53;;;;;;;9.20;6.15;;;;;;;;;;6304107;22;20031;-83
2022/07/24 00:11:20;;;;;;;16.02;6.25;;;;;;;;;;6276511;22;20020;-83
2022/07/24 00:13:47;;;;;;;10.18;6.15;;;;;;;;;;6276258;22;20054;-84
2022/07/24 00:16:14;;;;;;;9.30;5.90;;;;;;;;;;6304697;22;20573;-84
2022/07/24 00:18:41;;;;;;;8.68;5.93;;;;;;;;;;6304403;22;20055;-84
2022/07/24 00:21:09;;;;;;;10.38;5.97;;;;;;;;;;6304565;22;20818;-84
2022/07/24 00:23:36;;;;;;;8.45;6.43;;;;;;;;;;6303747;22;20758;-84
2022/07/24 00:26:03;;;;;;;12.90;6.60;;;;;;;;;;6304219;22;20167;-83
2022/07/24 00:28:30;;;;;;;8.52;5.93;;;;;;;;;;6303719;22;20059;-83
2022/07/24 00:30:57;;;;;;;9.68;6.20;;;;;;;;;;6304256;22;20063;-84
2022/07/24 00:33:25;;;;;;;9.00;5.70;;;;;;;;;;6276707;22;20104;-83
2022/07/24 00:35:55;;;;;;;8.65;4.90;;;;;;;;;;6303570;22;20102;-83
2022/07/24 00:38:22;;;;;;;8.65;5.72;;;;;;;;;;6303910;22;20030;-84
2022/07/24 00:40:49;;;;;;;10.20;6.07;;;;;;;;;;6303691;22;20020;-83
2022/07/24 00:43:16;;;;;;;8.18;6.30;;;;;;;;;;6303497;22;20102;-83
2022/07/24 00:45:44;;;;;;;8.82;6.13;;;;;;;;;;6277643;22;20078;-83
2022/07/24 00:48:11;;;;;;;12.27;6.43;;;;;;;;;;6304266;22;20027;-83
2022/07/24 00:50:39;;;;;;;9.38;5.05;;;;;;;;;;6275683;22;20162;-83
2022/07/24 00:53:07;;;;;;;8.50;5.90;;;;;;;;;;6303635;22;20141;-84
2022/07/24 00:55:34;;;;;;;8.18;6.18;;;;;;;;;;6304181;22;20027;-84
2022/07/24 00:58:01;;;;;;;7.40;5.50;;;;;;;;;;6303761;22;20089;-83
2022/07/24 01:00:28;;;;;;;11.82;6.50;;;;;;;;;;6303513;22;20026;-83
2022/07/24 01:02:56;;;;;;;8.48;5.78;;;;;;;;;;6303560;22;20024;-84
2022/07/24 01:05:25;;;;;;;10.70;6.10;;;;;;;;;;6303779;22;20027;-83
2022/07/24 01:07:52;;;;;;;8.18;6.07;;;;;;;;;;6303909;22;20036;-83
2022/07/24 01:10:19;;;;;;;9.60;5.65;;;;;;;;;;6277138;22;20085;-83
2022/07/24 01:12:47;;;;;;;8.82;5.97;;;;;;;;;;6302928;22;20020;-83
2022/07/24 01:15:14;;;;;;;9.40;6.32;;;;;;;;;;6303334;22;20019;-83
2022/07/24 01:17:42;;;;;;;9.00;5.93;;;;;;;;;;6304317;22;20375;-83
2022/07/24 01:20:10;;;;;;;9.27;6.05;;;;;;;;;;6303958;22;20578;-83
2022/07/24 01:22:37;;;;;;;8.13;5.75;;;;;;;;;;6276280;22;20019;-83
2022/07/24 01:25:05;;;;;;;10.02;6.43;;;;;;;;;;6303819;22;20054;-84
2022/07/24 01:27:32;;;;;;;11.00;6.15;;;;;;;;;;6302479;22;20099;-83
2022/07/24 01:29:59;;;;;;;7.75;6.20;;;;;;;;;;6303705;22;20027;-83
2022/07/24 01:32:26;;;;;;;11.43;6.43;;;;;;;;;;6303671;22;20066;-83
2022/07/24 01:34:53;;;;;;;9.45;6.85;;;;;;;;;;6304185;22;20034;-83
2022/07/24 01:37:20;;;;;;;7.45;5.90;;;;;;;;;;6302671;22;20071;-83
2022/07/24 01:39:47;;;;;;;8.77;6.10;;;;;;;;;;6305194;22;20020;-83
2022/07/24 01:42:14;;;;;;;12.43;6.70;;;;;;;;;;6302841;22;20501;-83
2022/07/24 01:44:42;;;;;;;8.55;5.55;;;;;;;;;;6276009;22;20095;-83
2022/07/24 01:47:09;;;;;;;10.70;6.03;;;;;;;;;;6304901;22;20526;-83
2022/07/24 01:49:36;;;;;;;8.93;5.90;;;;;;;;;;6303544;22;20447;-83
2022/07/24 01:52:03;;;;;;;7.03;5.15;;;;;;;;;;6304160;22;20107;-83
2022/07/24 01:54:30;;;;;;;8.13;5.35;;;;;;;;;;6303487;22;20031;-83
2022/07/24 01:56:57;;;;;;;6.85;5.25;;;;;;;;;;6302631;22;20034;-83
2022/07/24 01:59:24;;;;;;;8.82;5.22;;;;;;;;;;6303861;22;20111;-83
2022/07/24 02:01:52;;;;;;;8.45;5.03;;;;;;;;;;6276762;22;20440;-84
2022/07/24 02:04:20;;;;;;;6.75;4.28;;;;;;;;;;6303392;22;20027;-84
2022/07/24 02:06:47;;;;;;;5.63;3.90;;;;;;;;;;6276820;22;20035;-84
2022/07/24 02:09:15;;;;;;;7.40;4.05;;;;;;;;;;6303518;22;20030;-84
2022/07/24 02:11:42;;;;;;;6.53;3.70;;;;;;;;;;6302226;22;20093;-84
2022/07/24 02:14:09;;;;;;;5.70;4.20;;;;;;;;;;6275445;22;20016;-84
2022/07/24 02:16:36;;;;;;;5.82;3.95;;;;;;;;;;6303337;22;20031;-84
2022/07/24 02:19:03;;;;;;;6.45;4.32;;;;;;;;;;6303559;22;20023;-84
2022/07/24 02:21:31;;;;;;;8.40;4.85;;;;;;;;;;6306082;22;20034;-84
2022/07/24 02:23:59;;;;;;;6.85;4.28;;;;;;;;;;6303755;22;20490;-84
2022/07/24 02:26:26;;;;;;;9.02;5.97;;;;;;;;;;6302910;22;20102;-83
2022/07/24 02:28:53;;;;;;;12.57;7.28;;;;;;;;;;6302122;22;20043;-83
2022/07/24 02:31:20;;;;;;;11.00;7.57;;;;;;;;;;6303696;22;20024;-85
2022/07/24 02:33:47;;;;;;;9.55;7.15;;;;;;;;;;6304385;22;20019;-83
2022/07/24 02:36:14;;;;;;;13.32;8.55;;;;;;;;;;6304053;22;20066;-83
2022/07/24 02:38:44;;;;;;;14.00;9.30;;;;;;;;;;6302914;22;20549;-84
2022/07/24 02:41:11;;;;;;;12.90;9.00;;;;;;;;;;6276700;22;20019;-84
2022/07/24 02:43:38;;;;;;;16.65;9.30;;;;;;;;;;6276922;22;20760;-83
2022/07/24 02:46:06;;;;;;;17.02;10.05;;;;;;;;;;6304334;22;21010;-84
2022/07/24 02:48:33;;;;;;;14.63;9.68;;;;;;;;;;6276509;22;20019;-83
2022/07/24 02:51:00;;;;;;;16.60;9.50;;;;;;;;;;6302500;22;20098;-83
2022/07/24 02:53:27;;;;;;;16.65;9.75;;;;;;;;;;6273304;22;20030;-84
2022/07/24 02:55:54;;;;;;;16.73;10.25;;;;;;;;;;6303721;22;20055;-83
2022/07/24 02:58:21;;;;;;;17.58;10.80;;;;;;;;;;6274068;22;20023;-83
2022/07/24 03:00:48;;;;;;;16.67;11.00;;;;;;;;;;6302874;22;20047;-84
2022/07/24 03:03:16;;;;;;;19.58;11.88;;;;;;;;;;6276372;22;20035;-83
2022/07/24 03:05:43;;;;;;;19.38;12.38;;;;;;;;;;6303894;22;20020;-83
2022/07/24 03:08:10;;;;;;;18.60;11.75;;;;;;;;;;6304577;22;20067;-83
2022/07/24 03:10:37;;;;;;;21.10;13.25;;;;;;;;;;6302632;22;20051;-83
2022/07/24 03:13:08;;;;;;;20.42;13.15;;;;;;;;;;6304015;22;20024;-84
2022/07/24 03:15:37;;;;;;;18.70;11.63;;;;;;;;;;6276097;22;20031;-84
2022/07/24 03:18:04;;;;;;;17.17;12.50;;;;;;;;;;6305190;22;20028;-85
2022/07/24 03:20:48;;;;;;;18.80;11.93;;;;;;;;;;6281682;22;20772;-83
2022/07/24 03:23:15;;;;;;;23.73;12.50;;;;;;;;;;6303778;22;20020;-83
2022/07/24 03:25:43;;;;;;;16.70;11.90;;;;;;;;;;6303978;22;20055;-84
2022/07/24 03:28:10;;;;;;;14.75;10.65;;;;;;;;;;6303380;22;20026;-84
2022/07/24 03:30:39;;;;;;;18.90;11.40;;;;;;;;;;6302028;22;20023;-85
2022/07/24 03:33:06;;;;;;;16.80;10.50;;;;;;;;;;6276689;22;20107;-84
2022/07/24 03:35:33;;;;;;;15.90;10.68;;;;;;;;;;6275274;22;20771;-83
2022/07/24 03:38:00;;;;;;;16.38;11.00;;;;;;;;;;6303231;22;20036;-83
2022/07/24 03:40:30;;;;;;;20.52;12.05;;;;;;;;;;6303247;22;20019;-84
2022/07/24 03:42:58;;;;;;;22.25;12.95;;;;;;;;;;6305036;22;20108;-84
2022/07/24 03:45:25;;;;;;;16.35;12.00;;;;;;;;;;6303626;22;20476;-84
2022/07/24 03:47:52;;;;;;;21.77;13.65;;;;;;;;;;6303929;22;20019;-84
2022/07/24 03:50:19;;;;;;;25.38;15.10;;;;;;;;;;6275747;22;20054;-85
2022/07/24 03:52:48;;;;;;;23.08;14.48;;;;;;;;;;6302014;22;20562;-83
2022/07/24 03:55:16;;;;;;;24.42;14.85;;;;;;;;;;6303204;22;20028;-84
2022/07/24 03:57:43;;;;;;;27.48;14.32;;;;;;;;;;6275050;22;20095;-84
2022/07/24 04:00:11;;;;;;;24.75;14.27;;;;;;;;;;6302306;22;20089;-83
2022/07/24 04:02:38;;;;;;;20.33;12.43;;;;;;;;;;6274694;22;20059;-83
2022/07/24 04:05:08;;;;;;;25.45;14.73;;;;;;;;;;6303703;22;20028;-83
2022/07/24 04:07:38;;;;;;;26.40;16.10;;;;;;;;;;6274256;22;20487;-83
2022/07/24 04:10:06;;;;;;;23.80;15.43;;;;;;;;;;6303722;22;20051;-83
2022/07/24 04:12:34;;;;;;;22.13;14.40;;;;;;;;;;6276530;22;20082;-83
2022/07/24 04:15:01;;;;;;;26.50;15.13;;;;;;;;;;6303242;22;20034;-84
2022/07/24 04:17:28;;;;;;;22.15;14.05;;;;;;;;;;6305066;22;20059;-84
2022/07/24 04:19:56;;;;;;;20.27;14.32;;;;;;;;;;6303987;22;20043;-83
2022/07/24 04:22:23;;;;;;;20.10;13.25;;;;;;;;;;6276746;22;20056;-83
2022/07/24 04:24:50;;;;;;;22.33;14.45;;;;;;;;;;6305293;22;20032;-83
2022/07/24 04:27:20;;;;;;;25.27;14.55;;;;;;;;;;6277333;22;20062;-83
2022/07/24 04:29:47;;;;;;;27.38;15.57;;;;;;;;;;6277723;22;20066;-83
2022/07/24 04:32:15;;;;;;;24.45;13.40;;;;;;;;;;6304470;22;20019;-83
2022/07/24 04:34:43;;;;;;;24.88;14.98;;;;;;;;;;6277684;22;20483;-83
2022/07/24 04:37:10;;;;;;;24.88;15.32;;;;;;;;;;6305148;22;20077;-83
2022/07/24 04:39:37;;;;;;;27.52;15.35;;;;;;;;;;6304441;22;20685;-83
2022/07/24 04:42:04;;;;;;;23.52;14.18;;;;;;;;;;6304801;22;20117;-83
2022/07/24 04:44:31;;;;;;;33.92;15.95;;;;;;;;;;6304700;22;20027;-83
2022/07/24 04:46:58;;;;;;;23.23;16.65;;;;;;;;;;6304602;22;20073;-83
2022/07/24 04:49:26;;;;;;;25.92;16.67;;;;;;;;;;6304345;22;20073;-83
2022/07/24 04:51:53;;;;;;;23.92;16.25;;;;;;;;;;6304401;22;20102;-83
2022/07/24 04:54:20;;;;;;;24.50;15.98;;;;;;;;;;6304287;22;20506;-83
2022/07/24 04:56:47;;;;;;;28.13;17.42;;;;;;;;;;6304416;22;20513;-83
2022/07/24 04:59:14;;;;;;;25.10;16.50;;;;;;;;;;6304309;22;20107;-83
2022/07/24 05:01:41;;;;;;;28.27;17.10;;;;;;;;;;6304616;22;20430;-83
2022/07/24 05:04:14;;;;;;;25.25;17.30;;;;;;;;;;6305619;22;20035;-83
2022/07/24 05:06:41;;;;;;;25.42;17.45;;;;;;;;;;6305535;22;20048;-84
2022/07/24 05:09:08;;;;;;;27.83;17.17;;;;;;;;;;6278767;22;20077;-83
2022/07/24 05:11:35;;;;;;;31.98;19.90;;;;;;;;;;6304021;22;20103;-83
2022/07/24 05:14:02;;;;;;;31.75;19.58;;;;;;;;;;6302401;22;20548;-83
2022/07/24 05:16:30;;;;;;;36.30;20.55;;;;;;;;;;6276565;22;20077;-83
2022/07/24 05:18:57;;;;;;;30.55;19.45;;;;;;;;;;6303877;22;20031;-83
2022/07/24 05:21:24;;;;;;;31.45;19.90;;;;;;;;;;6275316;22;20028;-83
2022/07/24 05:23:54;;;;;;;29.30;19.05;;;;;;;;;;6304296;22;20032;-83
2022/07/24 05:26:21;;;;;;;29.58;19.38;;;;;;;;;;6304899;22;20713;-83
2022/07/24 05:28:49;;;;;;;32.00;19.20;;;;;;;;;;6304760;22;20068;-84
2022/07/24 05:31:16;;;;;;;35.10;20.13;;;;;;;;;;6305211;22;20095;-84
2022/07/24 05:33:44;;;;;;;34.40;22.15;;;;;;;;;;6303962;22;20023;-83
2022/07/24 05:36:11;;;;;;;32.40;21.27;;;;;;;;;;6304562;22;20375;-83
2022/07/24 05:38:40;;;;;;;37.50;20.85;;;;;;;;;;6276199;22;20024;-83
2022/07/24 05:41:10;;;;;;;35.78;22.15;;;;;;;;;;6304258;22;20016;-84
2022/07/24 05:43:37;;;;;;;35.88;22.10;;;;;;;;;;6304693;22;20102;-83
2022/07/24 05:46:04;;;;;;;32.20;18.90;;;;;;;;;;6303129;22;20020;-84
2022/07/24 05:48:31;;;;;;;30.77;19.40;;;;;;;;;;6275503;22;20023;-83
2022/07/24 05:50:59;;;;;;;31.08;18.98;;;;;;;;;;6305584;22;20100;-83
2022/07/24 05:53:26;;;;;;;28.23;18.35;;;;;;;;;;6304122;22;20063;-84
2022/07/24 05:55:53;;;;;;;31.20;18.77;;;;;;;;;;6278311;22;20063;-84
2022/07/24 05:58:20;;;;;;;30.50;18.38;;;;;;;;;;6305392;22;20024;-84
2022/07/24 06:00:47;;;;;;;25.58;16.13;;;;;;;;;;6278556;22;20414;-83
2022/07/24 06:03:15;;;;;;;26.88;16.17;;;;;;;;;;6302318;22;20403;-84
2022/07/24 06:05:42;;;;;;;27.13;16.45;;;;;;;;;;6303406;22;20050;-84
2022/07/24 06:08:09;;;;;;;27.20;16.67;;;;;;;;;;6303862;22;20020;-83
2022/07/24 06:10:36;;;;;;;26.25;15.45;;;;;;;;;;6304356;22;20023;-83
2022/07/24 06:13:04;;;;;;;23.73;14.90;;;;;;;;;;6303374;22;20055;-84
2022/07/24 06:15:32;;;;;;;23.33;14.73;;;;;;;;;;6275013;22;20016;-83
2022/07/24 06:18:06;;;;;;;23.63;13.73;;;;;;;;;;6303691;22;20090;-83
2022/07/24 06:20:33;;;;;;;23.45;14.57;;;;;;;;;;6304183;22;20024;-84
2022/07/24 06:23:04;;;;;;;22.48;13.13;;;;;;;;;;6300457;22;20110;-84
2022/07/24 06:25:31;;;;;;;20.33;13.15;;;;;;;;;;6304387;22;20107;-83
2022/07/24 06:27:58;;;;;;;19.80;13.25;;;;;;;;;;6302936;22;20026;-82
2022/07/24 06:30:26;;;;;;;19.17;12.27;;;;;;;;;;6303106;22;20030;-83
2022/07/24 06:32:54;;;;;;;24.13;13.60;;;;;;;;;;6275234;22;20082;-83
2022/07/24 06:35:21;;;;;;;21.70;12.68;;;;;;;;;;6275485;22;20115;-83
2022/07/24 06:37:48;;;;;;;25.40;13.32;;;;;;;;;;6305249;22;20126;-84
2022/07/24 06:40:16;;;;;;;22.23;12.32;;;;;;;;;;6274824;22;20560;-83
2022/07/24 06:42:44;;;;;;;19.25;11.52;;;;;;;;;;6303816;22;20106;-83
2022/07/24 06:45:11;;;;;;;23.48;11.20;;;;;;;;;;6304050;22;20051;-83
2022/07/24 06:47:39;;;;;;;19.08;10.98;;;;;;;;;;6303668;22;20099;-83
2022/07/24 06:50:06;;;;;;;15.40;9.70;;;;;;;;;;6304678;22;20062;-84
2022/07/24 06:52:33;;;;;;;14.85;9.73;;;;;;;;;;6304163;22;20023;-84
2022/07/24 06:55:00;;;;;;;15.00;9.35;;;;;;;;;;6301926;22;20455;-83
2022/07/24 06:57:27;;;;;;;11.38;8.23;;;;;;;;;;6276058;22;20043;-84
2022/07/24 06:59:55;;;;;;;12.68;8.43;;;;;;;;;;6302129;22;20023;-84
2022/07/24 07:02:22;;;;;;;14.10;8.25;;;;;;;;;;6303424;22;20020;-85
2022/07/24 07:04:50;;;;;;;11.25;7.68;;;;;;;;;;6304651;22;20069;-85
2022/07/24 07:07:17;;;;;;;15.43;7.60;;;;;;;;;;6303946;22;20024;-86
2022/07/24 07:09:44;;;;;;;10.38;6.82;;;;;;;;;;6276566;22;20102;-84
2022/07/24 07:12:15;;;;;;;13.75;7.13;;;;;;;;;;6304475;22;20107;-84
2022/07/24 07:14:42;;;;;;;11.05;5.70;;;;;;;;;;6275420;22;20064;-84
2022/07/24 07:17:12;;;;;;;10.60;6.07;;;;;;;;;;6276552;22;20034;-85
2022/07/24 07:19:39;;;;;;;9.10;5.63;;;;;;;;;;6276719;22;20474;-84
2022/07/24 07:22:06;;;;;;;8.25;5.18;;;;;;;;;;6304647;22;20089;-84
2022/07/24 07:24:33;;;;;;;9.20;5.53;;;;;;;;;;6303645;22;20821;-84
2022/07/24 07:27:00;;;;;;;8.25;5.30;;;;;;;;;;6275729;22;20107;-85
2022/07/24 07:29:33;;;;;;;10.13;5.10;;;;;;;;;;6277688;22;20092;-85
2022/07/24 07:32:00;;;;;;;6.75;4.18;;;;;;;;;;6305591;22;20039;-85
2022/07/24 07:34:27;;;;;;;7.63;4.07;;;;;;;;;;6276239;22;20060;-84
2022/07/24 07:36:54;;;;;;;6.03;3.80;;;;;;;;;;6277364;22;20032;-85
2022/07/24 07:39:22;;;;;;;6.63;3.80;;;;;;;;;;6304571;22;20895;-85
2022/07/24 07:41:49;;;;;;;6.13;3.97;;;;;;;;;;6305371;22;20062;-85
2022/07/24 07:44:16;;;;;;;9.93;3.50;;;;;;;;;;6305100;22;20047;-85
2022/07/24 07:46:43;;;;;;;6.15;3.55;;;;;;;;;;6305940;22;20675;-85
2022/07/24 07:49:10;;;;;;;6.80;3.25;;;;;;;;;;6305924;22;20016;-86
2022/07/24 07:51:40;;;;;;;4.03;2.60;;;;;;;;;;6307287;22;20086;-85
2022/07/24 07:54:09;;;;;;;6.78;2.83;;;;;;;;;;6305104;22;20049;-86
2022/07/24 07:56:37;;;;;;;4.78;2.58;;;;;;;;;;6280478;22;20034;-84
2022/07/24 07:59:06;;;;;;;4.30;2.40;;;;;;;;;;6306768;22;20459;-85
2022/07/24 08:01:34;;;;;;;4.47;2.17;;;;;;;;;;6279503;22;20027;-86
2022/07/24 08:04:02;;;;;;;2.88;2.03;;;;;;;;;;6277706;22;20012;-85
2022/07/24 08:06:30;;;;;;;8.32;2.20;;;;;;;;;;6305852;22;20478;-87
2022/07/24 08:08:57;;;;;;;4.15;2.10;;;;;;;;;;6278164;22;20031;-85
2022/07/24 08:11:25;;;;;;;5.38;2.15;;;;;;;;;;6303492;22;20032;-86
2022/07/24 08:13:54;;;;;;;3.30;2.00;;;;;;;;;;6302730;22;20467;-85
2022/07/24 08:16:21;;;;;;;2.45;1.90;;;;;;;;;;6303938;22;20430;-85
2022/07/24 08:18:48;;;;;;;4.70;2.22;;;;;;;;;;6303982;22;20027;-85
2022/07/24 08:21:18;;;;;;;3.83;1.92;;;;;;;;;;6304493;22;20035;-85
2022/07/24 08:23:46;;;;;;;3.05;2.10;;;;;;;;;;6304346;22;20030;-86
2022/07/24 08:26:13;;;;;;;4.22;2.22;;;;;;;;;;6303929;22;20467;-85
2022/07/24 08:28:40;;;;;;;5.38;2.20;;;;;;;;;;6303483;22;20078;-85
2022/07/24 08:31:08;;;;;;;5.00;2.30;;;;;;;;;;6305165;22;20095;-85
2022/07/24 08:33:35;;;;;;;4.13;2.35;;;;;;;;;;6304653;22;20019;-85
2022/07/24 08:36:02;;;;;;;4.57;2.20;;;;;;;;;;6300307;22;20091;-86
2022/07/24 08:38:29;;;;;;;3.75;2.15;;;;;;;;;;6304958;22;20054;-88
2022/07/24 08:40:56;;;;;;;3.38;2.17;;;;;;;;;;6305137;22;20103;-86
2022/07/24 08:43:23;;;;;;;6.88;2.33;;;;;;;;;;6303495;22;20482;-85
2022/07/24 08:45:52;;;;;;;5.20;2.13;;;;;;;;;;6304249;22;20028;-86
2022/07/24 08:48:21;;;;;;;4.97;2.22;;;;;;;;;;6304565;22;21083;-86
2022/07/24 08:50:50;;;;;;;3.50;2.00;;;;;;;;;;6304570;22;20062;-86
2022/07/24 08:53:19;;;;;;;3.80;2.40;;;;;;;;;;6304415;22;20024;-87
2022/07/24 08:55:47;;;;;;;3.13;2.20;;;;;;;;;;6304011;22;20020;-86
2022/07/24 08:58:16;;;;;;;5.15;2.20;;;;;;;;;;6278418;22;20050;-85
2022/07/24 09:00:43;;;;;;;6.18;2.20;;;;;;;;;;6303852;22;20759;-85
2022/07/24 09:03:12;;;;;;;5.28;2.28;;;;;;;;;;6303881;22;20455;-85
2022/07/24 09:05:52;;;;;;;4.72;2.15;;;;;;;;;;6304531;22;20020;-85
2022/07/24 09:08:20;;;;;;;2.88;2.00;;;;;;;;;;6305223;22;20093;-85
2022/07/24 09:10:54;;;;;;;3.92;2.00;;;;;;;;;;6304124;22;20103;-85
2022/07/24 09:13:24;;;;;;;4.72;2.33;;;;;;;;;;6302236;22;20518;-86
2022/07/24 09:15:51;;;;;;;5.10;2.45;;;;;;;;;;6302809;22;20027;-86
2022/07/24 09:18:29;;;;;;;3.65;2.20;;;;;;;;;;6303741;22;20028;-86
2022/07/24 09:20:57;;;;;;;5.90;2.40;;;;;;;;;;6304433;22;20058;-85
2022/07/24 09:23:25;;;;;;;3.72;2.20;;;;;;;;;;6304218;22;20034;-86
2022/07/24 09:25:55;;;;;;;5.25;2.40;;;;;;;;;;6301699;22;20027;-87
2022/07/24 09:28:22;;;;;;;3.95;2.40;;;;;;;;;;6303682;22;20085;-86
2022/07/24 09:31:01;;;;;;;4.45;2.40;;;;;;;;;;6304646;22;20066;-87
2022/07/24 09:33:36;;;;;;;4.60;2.30;;;;;;;;;;6304302;22;20030;-85
2022/07/24 09:36:11;;;;;;;4.25;2.60;;;;;;;;;;6305154;22;20020;-86
2022/07/24 09:38:38;;;;;;;4.15;2.50;;;;;;;;;;6304693;22;20062;-86
2022/07/24 09:41:05;;;;;;;4.28;2.20;;;;;;;;;;6304230;22;20026;-86
2022/07/24 09:43:35;;;;;;;4.40;2.22;;;;;;;;;;6302608;22;20027;-86
2022/07/24 09:46:07;;;;;;;6.07;2.65;;;;;;;;;;6275231;22;20020;-87
2022/07/24 09:48:51;;;;;;;5.18;2.30;;;;;;;;;;6302854;22;20773;-86
2022/07/24 09:51:18;;;;;;;5.68;2.50;;;;;;;;;;6304324;22;20028;-86
2022/07/24 09:53:46;;;;;;;3.95;2.42;;;;;;;;;;6275543;22;20052;-87
2022/07/24 09:56:16;;;;;;;5.00;2.65;;;;;;;;;;6277144;22;20024;-85
2022/07/24 09:58:46;;;;;;;6.47;3.00;;;;;;;;;;6303525;22;20087;-87
2022/07/24 10:01:17;;;;;;;7.38;2.65;;;;;;;;;;6303687;22;20035;-87
2022/07/24 10:03:46;;;;;;;4.63;2.35;;;;;;;;;;6303748;22;20023;-87
2022/07/24 10:06:14;;;;;;;4.85;2.70;;;;;;;;;;6304146;22;20024;-86
2022/07/24 10:08:42;;;;;;;4.82;2.60;;;;;;;;;;6275584;22;20505;-87
2022/07/24 10:11:10;;;;;;;4.70;2.17;;;;;;;;;;6304186;22;20054;-86
2022/07/24 10:13:38;;;;;;;3.80;2.53;;;;;;;;;;6277262;22;20813;-86
2022/07/24 10:16:05;;;;;;;6.03;2.65;;;;;;;;;;6276859;22;20019;-87
2022/07/24 10:18:49;;;;;;;4.28;2.75;;;;;;;;;;6276659;22;20020;-85
2022/07/24 10:21:20;;;;;;;6.28;2.50;;;;;;;;;;6276557;22;20487;-85
2022/07/24 10:23:59;;;;;;;5.78;2.10;;;;;;;;;;6275745;22;20058;-86
2022/07/24 10:26:49;;;;;;;5.22;2.42;;;;;;;;;;6276518;22;20095;-84
2022/07/24 10:29:17;;;;;;;4.50;2.33;;;;;;;;;;6285582;22;20044;-85
2022/07/24 10:31:45;;;;;;;3.53;2.25;;;;;;;;;;6277569;22;20024;-80
2022/07/24 10:34:25;;;;;;;6.13;2.17;;;;;;;;;;6304347;22;20027;-87
2022/07/24 10:36:55;;;;;;;5.25;2.63;;;;;;;;;;6278166;22;20912;-86
2022/07/24 10:39:29;;;;;;;3.58;2.20;;;;;;;;;;6303587;22;20089;-87
2022/07/24 10:42:04;;;;;;;5.00;2.55;;;;;;;;;;6304811;22;20030;-86
2022/07/24 10:44:32;;;;;;;5.53;2.33;;;;;;;;;;6303092;22;20020;-86
2022/07/24 10:47:01;;;;;;;5.47;2.33;;;;;;;;;;6276792;22;20109;-85
2022/07/24 10:49:34;;;;;;;2.72;2.10;;;;;;;;;;6302939;22;20103;-85
2022/07/24 10:52:01;;;;;;;3.58;2.22;;;;;;;;;;6304200;22;20107;-86
2022/07/24 10:54:31;;;;;;;4.28;2.20;;;;;;;;;;6304392;22;20115;-85
2022/07/24 10:56:58;;;;;;;5.05;2.35;;;;;;;;;;6305727;22;20103;-85
2022/07/24 10:59:32;;;;;;;5.38;2.40;;;;;;;;;;6303779;22;20085;-86
2022/07/24 11:02:19;;;;;;;5.47;2.50;;;;;;;;;;6279420;22;21117;-85
2022/07/24 11:04:46;;;;;;;3.30;2.30;;;;;;;;;;6303635;22;20438;-86
2022/07/24 11:07:14;;;;;;;6.43;2.28;;;;;;;;;;6304345;22;20023;-85
2022/07/24 11:09:55;;;;;;;2.65;2.10;;;;;;;;;;6303185;22;20086;-86
2022/07/24 11:12:27;;;;;;;5.70;2.17;;;;;;;;;;6302937;22;20027;-85
2022/07/24 11:15:53;;;;;;;3.90;2.30;;;;;;;;;;6302649;22;20019;-85
2022/07/24 11:17:47;;;;;;;3.35;2.22;;;;;;;;;;6303338;22;20098;-85
2022/07/24 11:20:18;;;;;;;4.70;2.00;;;;;;;;;;6302961;22;20931;-85
2022/07/24 11:22:53;;;;;;;3.85;2.25;;;;;;;;;;6303786;22;20067;-85
2022/07/24 11:25:23;;;;;;;4.07;2.13;;;;;;;;;;6304589;22;20602;-85
2022/07/24 11:27:58;;;;;;;4.72;2.10;;;;;;;;;;6278222;22;20034;-85
2022/07/24 11:30:26;;;;;;;3.70;2.05;;;;;;;;;;6305140;22;20031;-85
2022/07/24 11:32:58;;;;;;;3.92;1.98;;;;;;;;;;6280328;22;20047;-85
2022/07/24 11:35:33;;;;;;;3.80;2.10;;;;;;;;;;6303346;22;20024;-85
2022/07/24 11:38:01;;;;;;;2.40;1.90;;;;;;;;;;6305123;22;20031;-85
2022/07/24 11:40:30;;;;;;;4.47;2.10;;;;;;;;;;6278005;22;20533;-85
2022/07/24 11:42:59;;;;;;;3.88;2.10;;;;;;;;;;6306793;22;20063;-85
2022/07/24 11:45:26;;;;;;;5.22;2.05;;;;;;;;;;6303936;22;20035;-85
2022/07/24 11:47:54;;;;;;;4.25;2.08;;;;;;;;;;6277296;22;20541;-85
2022/07/24 11:50:23;;;;;;;3.75;2.10;;;;;;;;;;6275859;22;20043;-85
2022/07/24 11:52:50;;;;;;;5.03;2.22;;;;;;;;;;6304824;22;20074;-86
2022/07/24 11:55:22;;;;;;;3.35;1.90;;;;;;;;;;6277955;22;20403;-86
2022/07/24 11:57:53;;;;;;;3.40;1.88;;;;;;;;;;6279726;22;20031;-86
2022/07/24 12:00:41;;;;;;;3.47;1.90;;;;;;;;;;6302429;22;20030;-85
2022/07/24 12:03:09;;;;;;;4.05;2.00;;;;;;;;;;6305247;22;20034;-85
2022/07/24 12:05:45;;;;;;;2.53;1.75;;;;;;;;;;6276362;22;20766;-86
2022/07/24 12:08:18;;;;;;;3.35;2.00;;;;;;;;;;6304418;22;20027;-86
2022/07/24 12:10:48;;;;;;;2.95;1.85;;;;;;;;;;6299783;22;20399;-86
2022/07/24 12:13:16;;;;;;;7.13;2.20;;;;;;;;;;6303479;22;20019;-89
2022/07/24 12:15:44;;;;;;;3.25;2.03;;;;;;;;;;6303942;22;20082;-86
2022/07/24 12:18:11;;;;;;;7.78;2.30;;;;;;;;;;6303341;22;20463;-86
2022/07/24 12:20:40;;;;;;;2.65;1.80;;;;;;;;;;6302341;22;20263;-85
2022/07/24 12:23:13;;;;;;;4.30;1.90;;;;;;;;;;6299345;22;20027;-86
2022/07/24 12:25:43;;;;;;;3.85;1.80;;;;;;;;;;6294286;22;20027;-85
2022/07/24 12:28:12;;;;;;;3.42;1.98;;;;;;;;;;6272132;22;20016;-86
2022/07/24 12:30:45;;;;;;;3.47;1.85;;;;;;;;;;6302273;22;20094;-85
2022/07/24 12:33:17;;;;;;;5.70;1.90;;;;;;;;;;6275598;22;21172;-85
2022/07/24 12:35:55;;;;;;;4.07;2.20;;;;;;;;;;6276195;22;20674;-85
2022/07/24 12:38:30;;;;;;;3.80;1.95;;;;;;;;;;6276474;22;20475;-86
2022/07/24 12:41:14;;;;;;;2.97;1.70;;;;;;;;;;6303657;22;20078;-85
2022/07/24 12:43:51;;;;;;;7.28;2.10;;;;;;;;;;6302516;22;20031;-86
2022/07/24 12:46:20;;;;;;;2.88;1.98;;;;;;;;;;6302726;22;20042;-84
2022/07/24 12:49:00;;;;;;;3.35;2.00;;;;;;;;;;6302837;22;20070;-85
2022/07/24 12:51:44;;;;;;;5.80;1.98;;;;;;;;;;6274564;22;20078;-85
2022/07/24 12:54:16;;;;;;;5.32;1.90;;;;;;;;;;6304418;22;20111;-85
2022/07/24 12:56:44;;;;;;;3.00;1.90;;;;;;;;;;6273168;22;20048;-87
2022/07/24 12:59:24;;;;;;;3.42;1.80;;;;;;;;;;6303011;22;20998;-85
2022/07/24 13:01:52;;;;;;;6.07;2.00;;;;;;;;;;6303458;22;20110;-85
2022/07/24 13:04:21;;;;;;;3.28;2.00;;;;;;;;;;6302853;22;20398;-86
2022/07/24 13:06:55;;;;;;;3.20;2.20;;;;;;;;;;6303200;22;20024;-86
2022/07/24 13:09:23;;;;;;;4.03;1.90;;;;;;;;;;6302987;22;20347;-85
2022/07/24 13:11:51;;;;;;;4.28;1.92;;;;;;;;;;6304447;22;20028;-85
2022/07/24 13:14:20;;;;;;;2.08;1.65;;;;;;;;;;6303137;22;20102;-87
2022/07/24 13:16:48;;;;;;;2.88;2.10;;;;;;;;;;6301984;22;20024;-85
2022/07/24 13:19:16;;;;;;;2.83;1.80;;;;;;;;;;6304339;22;20022;-85
2022/07/24 13:21:46;;;;;;;3.75;1.75;;;;;;;;;;6277080;22;20070;-85
2022/07/24 13:24:14;;;;;;;3.30;1.85;;;;;;;;;;6304377;22;20038;-85
2022/07/24 13:26:43;;;;;;;4.13;1.88;;;;;;;;;;6305255;22;20672;-85
2022/07/24 13:29:11;;;;;;;4.88;1.92;;;;;;;;;;6304281;22;20026;-85
2022/07/24 13:31:39;;;;;;;3.17;1.70;;;;;;;;;;6301236;22;20485;-85
2022/07/24 13:34:06;;;;;;;3.28;1.85;;;;;;;;;;6301351;22;20082;-84
2022/07/24 13:36:37;;;;;;;4.93;1.83;;;;;;;;;;6302956;22;20024;-84
2022/07/24 13:39:07;;;;;;;3.30;1.77;;;;;;;;;;6303237;22;20078;-85
2022/07/24 13:41:35;;;;;;;2.42;1.88;;;;;;;;;;6301974;22;20698;-84
2022/07/24 13:44:03;;;;;;;5.28;1.77;;;;;;;;;;6303500;22;20473;-85
2022/07/24 13:46:34;;;;;;;2.00;1.80;;;;;;;;;;6304842;22;20051;-85
2022/07/24 13:49:04;;;;;;;3.00;1.92;;;;;;;;;;6305515;22;20525;-85
2022/07/24 13:51:31;;;;;;;3.08;1.60;;;;;;;;;;6305864;22;20427;-86
2022/07/24 13:53:59;;;;;;;3.67;2.00;;;;;;;;;;6308168;22;20066;-86
2022/07/24 13:56:27;;;;;;;2.78;1.88;;;;;;;;;;6304403;22;20038;-86
2022/07/24 13:58:54;;;;;;;5.47;1.77;;;;;;;;;;6306678;22;20098;-85
2022/07/24 14:01:21;;;;;;;4.68;1.65;;;;;;;;;;6302694;22;20047;-87
2022/07/24 14:04:02;;;;;;;2.70;1.80;;;;;;;;;;6279902;22;20032;-86
2022/07/24 14:06:50;;;;;;;1.88;1.67;;;;;;;;;;6280913;22;20019;-85
2022/07/24 14:09:17;;;;;;;4.60;1.80;;;;;;;;;;6304623;22;20015;-85
2022/07/24 14:11:44;;;;;;;2.90;1.90;;;;;;;;;;6304973;22;20019;-86
2022/07/24 14:14:13;;;;;;;3.53;1.90;;;;;;;;;;6303535;22;20107;-86
2022/07/24 14:16:41;;;;;;;2.83;1.63;;;;;;;;;;6302871;22;20024;-85
2022/07/24 14:19:08;;;;;;;2.10;1.60;;;;;;;;;;6304249;22;20027;-85
2022/07/24 14:21:37;;;;;;;2.15;1.60;;;;;;;;;;6303556;22;20055;-86
2022/07/24 14:24:08;;;;;;;3.03;1.60;;;;;;;;;;6304031;22;20036;-85
2022/07/24 14:26:41;;;;;;;3.67;1.60;;;;;;;;;;6303864;22;20045;-85
2022/07/24 14:29:09;;;;;;;2.65;1.80;;;;;;;;;;6278163;22;20030;-85
2022/07/24 14:31:36;;;;;;;2.78;1.80;;;;;;;;;;6302009;22;20019;-85
2022/07/24 14:34:04;;;;;;;3.33;1.65;;;;;;;;;;6303507;22;20090;-85
2022/07/24 14:36:31;;;;;;;2.60;1.80;;;;;;;;;;6302562;22;20043;-85
2022/07/24 14:38:58;;;;;;;3.03;1.75;;;;;;;;;;6301651;22;20024;-85
2022/07/24 14:41:28;;;;;;;3.00;1.60;;;;;;;;;;6275407;22;20024;-86
2022/07/24 14:43:55;;;;;;;3.17;2.00;;;;;;;;;;6302828;22;20836;-86
2022/07/24 14:46:29;;;;;;;2.78;1.60;;;;;;;;;;6302242;22;20030;-85